createdAt,value
2023-04-17T00:01:53.044Z,10.22
2023-04-17T00:04:58.122Z,10.10
2023-04-17T00:08:03.310Z,10.67
2023-04-17T00:11:09.108Z,11.03
2023-04-17T00:14:13.616Z,10.42
2023-04-17T00:17:17.855Z,10.70
2023-04-17T00:20:21.980Z,10.57
2023-04-17T00:23:27.577Z,12.06
2023-04-17T00:26:33.364Z,12.56
2023-04-17T00:29:38.358Z,11.43
2023-04-17T00:32:43.008Z,12.19
2023-04-17T00:35:46.907Z,11.02
2023-04-17T00:38:53.207Z,11.18
2023-04-17T00:41:58.344Z,11.98
2023-04-17T00:45:02.851Z,11.86
2023-04-17T00:48:09.830Z,11.57
2023-04-17T00:51:14.405Z,11.61
2023-04-17T00:54:20.105Z,10.60
2023-04-17T00:57:26.232Z,11.84
2023-04-17T01:00:30.738Z,12.21
2023-04-17T01:03:35.420Z,12.59
2023-04-17T01:06:40.269Z,13.48
2023-04-17T01:09:44.483Z,12.91
2023-04-17T01:12:50.121Z,13.96
2023-04-17T01:15:54.669Z,14.07
2023-04-17T01:18:59.097Z,13.82
2023-04-17T01:22:03.537Z,13.46
2023-04-17T01:25:07.756Z,13.76
2023-04-17T01:28:17.966Z,13.15
2023-04-17T01:31:23.017Z,12.09
2023-04-17T01:34:28.194Z,13.23
2023-04-17T01:37:32.708Z,14.53
2023-04-17T01:40:37.260Z,12.47
2023-04-17T01:43:45.116Z,12.10
2023-04-17T01:46:49.545Z,11.46
2023-04-17T01:49:53.988Z,12.56
2023-04-17T01:52:58.106Z,13.38
2023-04-17T01:56:02.875Z,12.84
2023-04-17T01:59:06.893Z,12.82
2023-04-17T02:02:11.454Z,11.14
2023-04-17T02:05:15.650Z,11.26
2023-04-17T02:08:21.217Z,12.30
2023-04-17T02:11:25.680Z,11.92
2023-04-17T02:14:32.104Z,12.28
2023-04-17T02:17:36.216Z,11.33
2023-04-17T02:20:40.697Z,11.68
2023-04-17T02:23:45.470Z,12.02
2023-04-17T02:26:50.476Z,12.24
2023-04-17T02:29:54.414Z,12.02
2023-04-17T02:32:59.965Z,11.60
2023-04-17T02:36:04.790Z,12.36
2023-04-17T02:39:20.672Z,12.48
2023-04-17T02:42:25.374Z,12.80
2023-04-17T02:45:29.840Z,12.04
2023-04-17T02:48:33.917Z,13.07
2023-04-17T02:51:38.296Z,12.96
2023-04-17T02:54:42.641Z,12.87
2023-04-17T02:57:48.392Z,12.62
2023-04-17T03:00:53.542Z,12.31
2023-04-17T03:03:58.478Z,12.27
2023-04-17T03:07:07.514Z,11.71
2023-04-17T03:10:12.557Z,12.03
2023-04-17T03:13:17.403Z,12.24
2023-04-17T03:16:22.209Z,12.27
2023-04-17T03:19:27.050Z,11.37
2023-04-17T03:22:31.510Z,11.24
2023-04-17T03:25:36.039Z,11.35
2023-04-17T03:28:40.252Z,10.87
2023-04-17T03:31:44.998Z,11.24
2023-04-17T03:34:49.179Z,11.32
2023-04-17T03:37:53.106Z,11.53
2023-04-17T03:40:57.981Z,10.93
2023-04-17T03:44:02.902Z,10.99
2023-04-17T03:47:07.385Z,10.85
2023-04-17T03:50:12.609Z,11.13
2023-04-17T03:53:24.309Z,11.06
2023-04-17T03:56:31.051Z,11.45
2023-04-17T03:59:36.740Z,11.20
2023-04-17T04:02:41.944Z,11.24
2023-04-17T04:05:46.698Z,11.62
2023-04-17T04:08:51.506Z,11.23
2023-04-17T04:11:56.328Z,10.13
2023-04-17T04:15:01.416Z,10.76
2023-04-17T04:18:08.174Z,10.74
2023-04-17T04:21:13.367Z,10.85
2023-04-17T04:24:21.149Z,11.02
2023-04-17T04:27:26.034Z,11.25
2023-04-17T04:30:36.695Z,11.10
2023-04-17T04:33:48.880Z,10.63
2023-04-17T04:36:53.489Z,10.82
2023-04-17T04:40:17.835Z,11.03
2023-04-17T04:43:23.051Z,10.60
2023-04-17T04:46:31.185Z,10.30
2023-04-17T04:49:37.010Z,10.34
2023-04-17T04:52:41.198Z,10.33
2023-04-17T04:55:58.277Z,10.58
2023-04-17T04:59:04.497Z,10.81
2023-04-17T05:02:12.211Z,10.98
2023-04-17T05:05:16.787Z,11.31
2023-04-17T05:08:22.206Z,11.30
2023-04-17T05:11:36.427Z,11.10
2023-04-17T05:14:41.461Z,10.86
2023-04-17T05:17:46.381Z,11.08
2023-04-17T05:20:52.581Z,10.41
2023-04-17T05:23:58.264Z,10.77
2023-04-17T05:27:04.049Z,10.40
2023-04-17T05:30:09.481Z,10.61
2023-04-17T05:33:13.980Z,10.48
2023-04-17T05:36:27.921Z,10.70
2023-04-17T05:39:37.292Z,10.90
2023-04-17T05:42:41.299Z,11.03
2023-04-17T05:45:46.880Z,10.99
2023-04-17T05:48:51.348Z,10.80
2023-04-17T05:51:56.026Z,10.40
2023-04-17T05:55:00.752Z,10.56
2023-04-17T05:58:20.470Z,10.62
2023-04-17T06:01:27.926Z,10.67
2023-04-17T06:04:35.822Z,10.61
2023-04-17T06:07:41.235Z,10.81
2023-04-17T06:10:46.858Z,10.99
2023-04-17T06:13:52.704Z,10.35
2023-04-17T06:16:58.436Z,10.94
2023-04-17T06:20:03.015Z,10.78
2023-04-17T06:23:07.105Z,10.71
2023-04-17T06:26:11.750Z,10.95
2023-04-17T06:29:17.477Z,11.18
2023-04-17T06:32:21.728Z,11.18
2023-04-17T06:35:26.358Z,11.37
2023-04-17T06:38:36.634Z,10.89
2023-04-17T06:41:41.604Z,10.89
2023-04-17T06:44:46.109Z,10.86
2023-04-17T06:47:50.512Z,10.88
2023-04-17T06:50:55.060Z,11.32
2023-04-17T06:54:00.255Z,10.91
2023-04-17T06:57:07.214Z,10.41
2023-04-17T07:00:13.338Z,10.67
2023-04-17T07:03:18.315Z,10.47
2023-04-17T07:06:24.169Z,10.35
2023-04-17T07:09:28.205Z,10.60
2023-04-17T07:12:32.886Z,10.66
2023-04-17T07:15:37.658Z,10.53
2023-04-17T07:18:42.500Z,10.61
2023-04-17T07:21:47.236Z,10.41
2023-04-17T07:24:51.723Z,10.53
2023-04-17T07:27:56.891Z,10.48
2023-04-17T07:31:01.312Z,10.17
2023-04-17T07:34:06.065Z,10.34
2023-04-17T07:37:10.173Z,10.28
2023-04-17T07:40:15.277Z,10.34
2023-04-17T07:43:19.621Z,10.34
2023-04-17T07:46:23.478Z,10.02
2023-04-17T07:49:27.537Z,10.11
2023-04-17T07:52:31.934Z,9.88
2023-04-17T07:55:36.677Z,9.99
2023-04-17T07:58:40.804Z,10.00
2023-04-17T08:01:44.984Z,9.79
2023-04-17T08:04:49.239Z,9.73
2023-04-17T08:07:53.647Z,9.63
2023-04-17T08:10:57.989Z,9.69
2023-04-17T08:14:03.769Z,9.86
2023-04-17T08:17:08.231Z,9.56
2023-04-17T08:20:12.609Z,9.66
2023-04-17T08:23:17.249Z,9.79
2023-04-17T08:26:21.626Z,9.49
2023-04-17T08:29:26.103Z,9.73
2023-04-17T08:32:30.868Z,9.08
2023-04-17T08:35:34.891Z,9.32
2023-04-17T08:38:39.498Z,9.19
2023-04-17T08:41:57.534Z,9.23
2023-04-17T08:45:05.909Z,9.32
2023-04-17T08:48:10.588Z,9.11
2023-04-17T08:51:16.604Z,9.20
2023-04-17T08:54:22.876Z,9.12
2023-04-17T08:57:27.080Z,8.40
2023-04-17T09:00:34.147Z,8.78
2023-04-17T09:03:46.016Z,8.74
2023-04-17T09:06:55.075Z,8.71
2023-04-17T09:09:59.105Z,8.60
2023-04-17T09:13:03.367Z,8.36
2023-04-17T09:16:09.910Z,8.28
2023-04-17T09:19:14.527Z,8.25
2023-04-17T09:22:23.665Z,8.34
2023-04-17T09:25:29.087Z,8.11
2023-04-17T09:28:36.277Z,7.86
2023-04-17T09:31:43.374Z,7.89
2023-04-17T09:34:47.977Z,7.94
2023-04-17T09:38:00.035Z,7.72
2023-04-17T09:41:04.010Z,7.70
2023-04-17T09:44:08.355Z,7.32
2023-04-17T09:47:13.842Z,7.70
2023-04-17T09:50:22.530Z,7.50
2023-04-17T09:53:27.755Z,7.39
2023-04-17T09:56:34.571Z,7.36
2023-04-17T09:59:44.037Z,6.94
2023-04-17T10:02:52.991Z,7.07
2023-04-17T10:05:59.431Z,6.89
2023-04-17T10:09:09.018Z,6.91
2023-04-17T10:12:18.989Z,6.78
2023-04-17T10:15:24.571Z,6.48
2023-04-17T10:18:29.212Z,6.33
2023-04-17T10:21:35.889Z,6.21
2023-04-17T10:24:40.569Z,6.04
2023-04-17T10:27:47.313Z,5.79
2023-04-17T10:30:55.640Z,5.87
2023-04-17T10:34:01.793Z,5.64
2023-04-17T10:37:06.183Z,5.31
2023-04-17T10:40:13.527Z,5.30
2023-04-17T10:43:21.297Z,5.10
2023-04-17T10:46:27.526Z,4.84
2023-04-17T10:49:51.983Z,5.11
2023-04-17T10:52:57.321Z,5.29
2023-04-17T10:56:03.626Z,5.16
2023-04-17T10:59:12.995Z,4.67
2023-04-17T11:02:17.665Z,4.39
2023-04-17T11:05:23.813Z,4.13
2023-04-17T11:08:29.671Z,4.08
2023-04-17T11:11:47.127Z,4.00
2023-04-17T11:14:51.662Z,4.26
2023-04-17T11:17:57.859Z,4.31
2023-04-17T11:21:03.173Z,3.99
2023-04-17T11:24:07.877Z,3.82
2023-04-17T11:27:12.142Z,3.60
2023-04-17T11:30:26.391Z,3.25
2023-04-17T11:33:38.389Z,3.27
2023-04-17T11:36:53.018Z,3.35
2023-04-17T11:40:12.853Z,3.15
2023-04-17T11:43:18.409Z,3.07
2023-04-17T11:46:24.298Z,3.03
2023-04-17T11:49:31.326Z,2.86
2023-04-17T11:52:35.934Z,3.08
2023-04-17T11:55:40.798Z,2.73
2023-04-17T11:59:05.951Z,2.57
2023-04-17T12:02:10.988Z,2.50
2023-04-17T12:05:18.613Z,2.38
2023-04-17T12:08:26.895Z,2.20
2023-04-17T12:11:34.480Z,1.95
2023-04-17T12:14:39.909Z,1.99
2023-04-17T12:17:43.830Z,1.98
2023-04-17T12:20:49.958Z,2.03
2023-04-17T12:23:54.591Z,2.02
2023-04-17T12:27:02.603Z,1.94
2023-04-17T12:30:07.585Z,1.72
2023-04-17T12:33:11.995Z,1.66
2023-04-17T12:36:18.293Z,1.50
2023-04-17T12:39:22.308Z,1.50
2023-04-17T12:42:26.781Z,1.50
2023-04-17T12:45:34.449Z,1.69
2023-04-17T12:48:39.241Z,1.86
2023-04-17T12:51:44.001Z,1.79
2023-04-17T12:54:48.523Z,1.90
2023-04-17T12:57:53.815Z,1.78
2023-04-17T13:00:58.223Z,1.51
2023-04-17T13:04:03.249Z,1.40
2023-04-17T13:07:07.444Z,1.05
2023-04-17T13:10:11.918Z,0.95
2023-04-17T13:13:16.647Z,0.51
2023-04-17T13:16:21.428Z,0.56
2023-04-17T13:19:25.913Z,0.69
2023-04-17T13:22:30.283Z,0.32
2023-04-17T13:25:35.251Z,0.53
2023-04-17T13:28:40.847Z,0.41
2023-04-17T13:31:45.328Z,0.34
2023-04-17T13:34:50.914Z,0.49
2023-04-17T13:37:56.653Z,0.61
2023-04-17T13:41:01.195Z,0.31
2023-04-17T13:44:07.929Z,0.62
2023-04-17T13:47:14.690Z,0.42
2023-04-17T13:50:19.280Z,0.48
2023-04-17T13:53:23.662Z,0.73
2023-04-17T13:56:29.092Z,0.59
2023-04-17T13:59:36.516Z,0.67
2023-04-17T14:02:41.427Z,0.76
2023-04-17T14:05:46.301Z,0.64
2023-04-17T14:08:50.885Z,0.34
2023-04-17T14:11:55.324Z,0.02
2023-04-17T14:14:59.475Z,-0.09
2023-04-17T14:18:03.550Z,0.06
2023-04-17T14:21:08.229Z,0.04
2023-04-17T14:24:12.837Z,-0.41
2023-04-17T14:27:17.803Z,-0.23
2023-04-17T14:30:21.913Z,-0.06
2023-04-17T14:33:26.610Z,-0.32
2023-04-17T14:36:32.115Z,-0.21
2023-04-17T14:39:36.395Z,-0.36
2023-04-17T14:42:53.617Z,-0.32
2023-04-17T14:45:59.236Z,-0.44
2023-04-17T14:49:04.405Z,-0.52
2023-04-17T14:52:08.821Z,-0.51
2023-04-17T14:55:13.494Z,-0.57
2023-04-17T14:58:17.972Z,-0.41
2023-04-17T15:01:22.087Z,-0.33
2023-04-17T15:04:29.614Z,-0.51
2023-04-17T15:07:34.236Z,-0.79
2023-04-17T15:10:50.247Z,-0.76
2023-04-17T15:13:56.153Z,-0.95
2023-04-17T15:17:03.251Z,-0.51
2023-04-17T15:20:08.311Z,-0.63
2023-04-17T15:23:12.817Z,-0.86
2023-04-17T15:26:17.254Z,-0.91
2023-04-17T15:29:21.600Z,-1.13
2023-04-17T15:32:27.492Z,-1.10
2023-04-17T15:35:31.774Z,-1.12
2023-04-17T15:38:35.945Z,-1.19
2023-04-17T15:41:42.756Z,-0.94
2023-04-17T15:44:47.579Z,-0.66
2023-04-17T15:47:52.329Z,-0.96
2023-04-17T15:50:57.068Z,-1.04
2023-04-17T15:54:01.483Z,-0.97
2023-04-17T15:57:06.398Z,-1.00
2023-04-17T16:00:11.727Z,-1.21
2023-04-17T16:03:15.628Z,-0.66
2023-04-17T16:06:21.284Z,-1.06
2023-04-17T16:09:25.253Z,-1.00
2023-04-17T16:12:29.437Z,-1.23
2023-04-17T16:15:33.824Z,-1.28
2023-04-17T16:18:38.533Z,-1.01
2023-04-17T16:21:42.666Z,-1.22
2023-04-17T16:24:47.534Z,-1.41
2023-04-17T16:27:52.425Z,-1.52
2023-04-17T16:30:57.079Z,-1.66
2023-04-17T16:34:01.436Z,-1.54
2023-04-17T16:37:05.970Z,-1.68
2023-04-17T16:40:10.713Z,-1.71
2023-04-17T16:43:14.639Z,-1.86
2023-04-17T16:46:26.123Z,-1.85
2023-04-17T16:49:36.357Z,-1.67
2023-04-17T16:52:44.637Z,-1.61
2023-04-17T16:55:49.283Z,-1.84
2023-04-17T16:58:53.746Z,-1.75
2023-04-17T17:02:00.089Z,-2.06
2023-04-17T17:05:06.929Z,-2.18
2023-04-17T17:08:11.704Z,-2.16
2023-04-17T17:11:17.860Z,-1.96
2023-04-17T17:14:24.768Z,-1.83
2023-04-17T17:17:29.079Z,-1.76
2023-04-17T17:20:33.249Z,-1.60
2023-04-17T17:23:38.783Z,-1.82
2023-04-17T17:26:43.488Z,-1.71
2023-04-17T17:29:48.168Z,-2.05
2023-04-17T17:32:52.709Z,-2.37
2023-04-17T17:35:57.118Z,-3.66
2023-04-17T17:39:01.118Z,-2.30
2023-04-17T17:42:09.433Z,-2.60
2023-04-17T17:45:13.936Z,-2.65
2023-04-17T17:48:21.155Z,-2.79
2023-04-17T17:51:25.662Z,-2.37
2023-04-17T17:54:30.417Z,-2.73
2023-04-17T17:57:46.062Z,-2.74
2023-04-17T18:00:52.878Z,-2.90
2023-04-17T18:03:57.548Z,-2.48
2023-04-17T18:07:02.291Z,-2.45
2023-04-17T18:10:07.221Z,-2.22
2023-04-17T18:13:11.964Z,-2.60
2023-04-17T18:16:16.679Z,-3.05
2023-04-17T18:19:21.396Z,-2.91
2023-04-17T18:22:25.490Z,-2.98
2023-04-17T18:25:29.786Z,-2.88
2023-04-17T18:28:34.701Z,-3.10
2023-04-17T18:31:39.280Z,-2.96
2023-04-17T18:34:44.769Z,-2.84
2023-04-17T18:37:52.016Z,-3.33
2023-04-17T18:40:59.159Z,-2.71
2023-04-17T18:44:06.924Z,-2.84
2023-04-17T18:47:13.843Z,-2.91
2023-04-17T18:50:21.263Z,-2.76
2023-04-17T18:53:35.890Z,-2.76
2023-04-17T18:56:46.315Z,-2.73
2023-04-17T18:59:50.716Z,-3.08
2023-04-17T19:02:55.044Z,-3.58
2023-04-17T19:05:59.418Z,-2.53
2023-04-17T19:09:07.274Z,-2.98
2023-04-17T19:12:12.013Z,-2.96
2023-04-17T19:15:20.021Z,-3.40
2023-04-17T19:18:24.726Z,-2.85
2023-04-17T19:21:29.150Z,-3.10
2023-04-17T19:24:37.453Z,-3.06
2023-04-17T19:27:46.933Z,-3.32
2023-04-17T19:30:51.632Z,-2.86
2023-04-17T19:33:58.578Z,-3.09
2023-04-17T19:37:06.182Z,-3.32
2023-04-17T19:40:21.309Z,-3.27
2023-04-17T19:43:37.089Z,-3.39
2023-04-17T19:46:41.614Z,-3.03
2023-04-17T19:49:46.168Z,-2.75
2023-04-17T19:52:51.598Z,-2.80
2023-04-17T19:55:59.008Z,-3.21
2023-04-17T19:59:03.980Z,-3.18
2023-04-17T20:02:08.162Z,-3.23
2023-04-17T20:05:12.659Z,-2.81
2023-04-17T20:08:17.119Z,-3.33
2023-04-17T20:11:21.392Z,-3.50
2023-04-17T20:14:26.568Z,-2.89
2023-04-17T20:17:30.540Z,-3.18
2023-04-17T20:20:36.655Z,-3.00
2023-04-17T20:23:40.873Z,-3.12
2023-04-17T20:26:45.029Z,-3.63
2023-04-17T20:29:49.330Z,-3.24
2023-04-17T20:32:53.818Z,-2.95
2023-04-17T20:35:58.520Z,-3.27
2023-04-17T20:39:03.026Z,-3.29
2023-04-17T20:42:08.403Z,-3.00
2023-04-17T20:45:25.224Z,-3.04
2023-04-17T20:48:29.603Z,-3.91
2023-04-17T20:51:34.059Z,-3.59
2023-04-17T20:54:38.521Z,-3.41
2023-04-17T20:58:07.899Z,-3.09
2023-04-17T21:01:12.501Z,-3.23
2023-04-17T21:04:17.293Z,-2.96
2023-04-17T21:07:21.883Z,-2.36
2023-04-17T21:10:26.386Z,-2.28
2023-04-17T21:13:31.756Z,-1.69
2023-04-17T21:16:36.643Z,-1.29
2023-04-17T21:19:41.649Z,-0.46
2023-04-17T21:22:46.186Z,1.04
2023-04-17T21:25:54.298Z,2.14
2023-04-17T21:28:58.442Z,3.15
2023-04-17T21:32:04.541Z,3.42
2023-04-17T21:35:09.913Z,4.31
2023-04-17T21:38:16.177Z,4.98
2023-04-17T21:41:20.329Z,5.67
2023-04-17T21:44:24.559Z,5.73
2023-04-17T21:47:29.205Z,6.92
2023-04-17T21:50:33.602Z,6.95
2023-04-17T21:53:38.783Z,8.25
2023-04-17T21:56:43.875Z,7.76
2023-04-17T21:59:48.423Z,6.89
2023-04-17T22:02:53.059Z,7.63
2023-04-17T22:05:58.710Z,8.29
2023-04-17T22:09:03.275Z,9.25
2023-04-17T22:12:24.055Z,10.44
2023-04-17T22:15:28.314Z,11.14
2023-04-17T22:18:32.763Z,12.42
2023-04-17T22:21:36.537Z,13.45
2023-04-17T22:24:43.242Z,13.35
2023-04-17T22:27:48.383Z,13.32
2023-04-17T22:30:53.064Z,12.27
2023-04-17T22:33:57.635Z,11.90
2023-04-17T22:37:02.361Z,11.12
2023-04-17T22:40:07.545Z,10.94
2023-04-17T22:43:11.628Z,11.84
2023-04-17T22:46:16.021Z,11.77
2023-04-17T22:49:20.537Z,11.62
2023-04-17T22:52:24.984Z,11.45
2023-04-17T22:55:29.370Z,11.07
2023-04-17T22:58:35.366Z,10.23
2023-04-17T23:01:39.760Z,9.86
2023-04-17T23:04:44.261Z,9.90
2023-04-17T23:07:48.640Z,9.52
2023-04-17T23:11:04.310Z,8.81
2023-04-17T23:14:09.040Z,9.28
2023-04-17T23:17:13.247Z,9.20
2023-04-17T23:20:17.842Z,9.02
2023-04-17T23:23:22.430Z,8.63
2023-04-17T23:26:26.702Z,9.00
2023-04-17T23:29:31.109Z,8.63
2023-04-17T23:32:35.652Z,8.72
2023-04-17T23:35:39.775Z,8.78
2023-04-17T23:38:44.071Z,8.86
2023-04-17T23:41:48.736Z,9.19
2023-04-17T23:44:53.750Z,9.36
2023-04-17T23:47:58.443Z,9.66
2023-04-17T23:51:02.703Z,9.54
2023-04-17T23:54:08.690Z,9.37
2023-04-17T23:57:12.698Z,10.05
